Terminal Aerodrome Forecast
Issued by NWS

Home | Current Version | Previous Version | Text Only | Print | Product List | Glossary On
Versions: 1 2 3 4 5 6 7 8 9 10 11 12 13 14 15
000
FTUS45 KRIW 242300
TAFCPR
TAF
KCPR 242325Z 2500/2524 22014G23KT P6SM SCT040
     FM250100 23012KT P6SM BKN150
     FM250800 27011KT P6SM VCSH SCT030 OVC050
     FM251200 36011KT 5SM -SN BR OVC018
     FM252200 36011KT P6SM VCSH OVC025=

USA.gov is the U.S. government's official web portal to all federal, state and local government web resources and services.